CheckWX is a tool to help pilots better visualize weather data.  It is not intended as a substitute for an official pre-flight weather briefing.

14:41:49 UTC

KNEW METAR
Lakefront Airport
New Orleans, Louisiana, USA
Current

24 mins ago

KNEW 201418Z 15006KT 8SM BKN015 BKN022 28/24 A3003 RMK AO2 T02780239
Observed
May-20 @ 14:18 UTC
Wind
  • 150° at 6 KTS
Visibility
8 SM
Flight Rules
MVFR
Cloud Levels
  • Broken at 1,500' AGL
  • Broken at 2,200' AGL
Temperature
28°C / 82°F
Dewpoint
24°C / 75°F
Heat Index
32°C / 89°F
Humidity
79%
Altimeter
30.03" Hg
Pressure
1016.92 hPa
Previous

49 mins ago

KNEW 201353Z 17006KT 8SM CLR 27/24 A3003 RMK AO2 SLP162 T02720239
Observed
May-20 @ 13:53 UTC
Wind
  • 170° at 6 KTS
Visibility
8 SM
Flight Rules
VFR
Cloud Levels
  • Clear skies
Temperature
27°C / 81°F
Dewpoint
24°C / 75°F
Heat Index
31°C / 87°F
Humidity
84%
Altimeter
30.03" Hg
Pressure
1016.92 hPa
Previous

2 hours ago

KNEW 201253Z 15005KT 5SM BR SCT005 26/24 A3002 RMK AO2 SLP160 T02560239
Observed
May-20 @ 12:53 UTC
Wind
  • 150° at 5 KTS
Visibility
5 SM
Flight Rules
MVFR
Conditions
Mist
Cloud Levels
  • Scattered at 500' AGL
Temperature
26°C / 79°F
Dewpoint
24°C / 75°F
Humidity
89%
Altimeter
30.02" Hg
Pressure
1016.62 hPa